Golden Spur — WSO2126 — position and weather

sailwx.info

Track history (hours):
 
Tides and Currents Weather Stations Pressure Air Temp Water Temp Dewpoint Dewpoint Depression Visibility Wind Speed Wind Dir Waves Ship Positions

Golden Spur

Last reported at 2015-Jun-22 17:11 UTC. Time now 2015-Aug-04 15:53 UTC.
Position N 42°50' W 070°37'.
Warning: this ship's position is 42 days out of date.

Length 28 m.

Type: Pleasure craft. MMSI: 338092974.

Date/timePositionNaut miles runAvg speedWind from/ knotsBaromVisibWave heightAir tempDewpointWater temp
2015-Jun-22 17:11N 42°50' W 070°37'91 2.0
2015-Jun-20 18:31N 41°25' W 069°54'9 9.1
2015-Jun-20 17:29N 41°21' W 070°05'55 2.2
2015-Jun-19 16:33N 41°18' W 071°18'1110.8
2015-Jun-19 15:33N 41°16' W 071°32'1010.4
2015-Jun-19 14:33N 41°14' W 071°46'1010.5
2015-Jun-19 13:33N 41°11' W 071°59'10 9.9
2015-Jun-19 12:33N 41°07' W 072°11'8 8.0
2015-Jun-19 11:33N 41°00' W 072°18'0 0.0
2015-Jun-19 10:33N 41°00' W 072°18'0 0.0
2015-Jun-19 09:33N 41°00' W 072°18'0 0.0
2015-Jun-19 08:33N 41°00' W 072°18'0 0.0
2015-Jun-19 07:33N 41°00' W 072°18'0 0.0
2015-Jun-19 06:33N 41°00' W 072°18'0 0.0
2015-Jun-19 05:33N 41°00' W 072°18'0 0.0
2015-Jun-19 04:33N 41°00' W 072°18'0 0.0
2015-Jun-19 03:33N 41°00' W 072°18'0 0.0
2015-Jun-19 02:33N 41°00' W 072°18'0 0.0
2015-Jun-19 01:30N 41°00' W 072°18'0 0.0
2015-Jun-19 00:33N 41°00' W 072°18'0 0.0
2015-Jun-18 23:33N 41°00' W 072°18'0 0.0
2015-Jun-18 22:33N 41°00' W 072°18'0 0.0
2015-Jun-18 21:33N 41°00' W 072°18'0 0.0
2015-Jun-18 20:33N 41°00' W 072°18'8 7.6
2015-Jun-18 19:33N 41°07' W 072°13'10 9.6
2015-Jun-18 18:33N 41°09' W 072°26'1211.9
2015-Jun-18 17:33N 41°09' W 072°42'1211.3
2015-Jun-18 16:28N 41°07' W 072°58'1010.8
2015-Jun-18 15:33N 41°04' W 073°10'1010.1
2015-Jun-18 14:33N 41°01' W 073°23'10 8.8
2015-Jun-18 13:23N 40°53' W 073°31'0 0.2
2015-Jun-18 12:32N 40°53' W 073°32'0 0.0
2015-Jun-18 11:32N 40°53' W 073°32'0 0.0
2015-Jun-18 10:26N 40°53' W 073°32'0 0.0
2015-Jun-18 09:22N 40°53' W 073°32'0 0.0
2015-Jun-18 08:31N 40°53' W 073°32'0 0.0
2015-Jun-18 07:31N 40°53' W 073°32'0 0.0
2015-Jun-18 06:31N 40°53' W 073°32'0 0.0
2015-Jun-18 05:22N 40°53' W 073°32'0 0.0
2015-Jun-18 04:31N 40°53' W 073°32'0 0.0
2015-Jun-18 02:13N 40°53' W 073°32'18 1.8
2015-Jun-17 16:05N 40°48' W 073°54'4 7.9
2015-Jun-17 15:33N 40°45' W 073°58'2 2.4
2015-Jun-17 14:33N 40°45' W 074°01'1 0.7
2015-Jun-17 13:31N 40°45' W 074°01'0 0.0
2015-Jun-17 12:31N 40°45' W 074°01'0 0.0
2015-Jun-17 11:31N 40°45' W 074°01'0 0.0
2015-Jun-17 10:31N 40°45' W 074°01'0 0.0
2015-Jun-17 09:32N 40°45' W 074°01'0 0.0
2015-Jun-17 08:32N 40°45' W 074°01'0 0.0
2015-Jun-17 07:32N 40°45' W 074°01'0 0.0
2015-Jun-17 06:32N 40°45' W 074°01'0 0.0
2015-Jun-17 05:32N 40°45' W 074°01'0 0.0
2015-Jun-17 04:32N 40°45' W 074°01'0 0.0
2015-Jun-17 03:32N 40°45' W 074°01'0 0.0
2015-Jun-17 02:32N 40°45' W 074°01'0 0.0
2015-Jun-17 01:32N 40°45' W 074°01'0 0.0
2015-Jun-17 00:32N 40°45' W 074°01'0 0.0
2015-Jun-16 23:32N 40°45' W 074°01'0 0.0
2015-Jun-16 22:32N 40°45' W 074°01'0 0.0
2015-Jun-16 21:32N 40°45' W 074°01'0 0.0
2015-Jun-16 20:32N 40°45' W 074°01'0 0.0
2015-Jun-16 19:32N 40°45' W 074°01'0 0.0
2015-Jun-16 18:32N 40°45' W 074°01'0 0.0
2015-Jun-16 17:32N 40°45' W 074°01'0 0.0
2015-Jun-16 16:32N 40°45' W 074°01'0 0.0
2015-Jun-16 15:32N 40°45' W 074°01'0 0.3
2015-Jun-16 14:33N 40°45' W 074°01'61 8.6
2015-Jun-16 07:29N 39°44' W 073°57'69 2.1
2015-Jun-14 22:17N 39°05' W 075°11'7 9.6
2015-Jun-14 21:33N 39°11' W 075°17'10 9.7
2015-Jun-14 20:33N 39°19' W 075°24'1212.4
2015-Jun-14 19:33N 39°29' W 075°34'7 6.7
2015-Jun-14 18:33N 39°33' W 075°41'8 7.9
2015-Jun-14 17:33N 39°32' W 075°51'  
Track history (hours):
 
Tides and Currents Weather Stations Pressure Air Temp Water Temp Dewpoint Dewpoint Depression Visibility Wind Speed Wind Dir Waves Ship Positions

Golden Spur

Last reported at 2015-Jun-22 17:11 UTC. Time now 2015-Aug-04 15:53 UTC.
Position N 42°50' W 070°37'.
Warning: this ship's position is 42 days out of date.

Length 28 m.

Type: Pleasure craft. MMSI: 338092974.

Date/timePositionNaut miles runAvg speedWind from/ knotsBaromVisibWave heightAir tempDewpointWater temp
2015-Jun-22 17:11N 42°50' W 070°37'91 2.0
2015-Jun-20 18:31N 41°25' W 069°54'9 9.1
2015-Jun-20 17:29N 41°21' W 070°05'55 2.2
2015-Jun-19 16:33N 41°18' W 071°18'1110.8
2015-Jun-19 15:33N 41°16' W 071°32'1010.4
2015-Jun-19 14:33N 41°14' W 071°46'1010.5
2015-Jun-19 13:33N 41°11' W 071°59'10 9.9
2015-Jun-19 12:33N 41°07' W 072°11'8 8.0
2015-Jun-19 11:33N 41°00' W 072°18'0 0.0
2015-Jun-19 10:33N 41°00' W 072°18'0 0.0
2015-Jun-19 09:33N 41°00' W 072°18'0 0.0
2015-Jun-19 08:33N 41°00' W 072°18'0 0.0
2015-Jun-19 07:33N 41°00' W 072°18'0 0.0
2015-Jun-19 06:33N 41°00' W 072°18'0 0.0
2015-Jun-19 05:33N 41°00' W 072°18'0 0.0
2015-Jun-19 04:33N 41°00' W 072°18'0 0.0
2015-Jun-19 03:33N 41°00' W 072°18'0 0.0
2015-Jun-19 02:33N 41°00' W 072°18'0 0.0
2015-Jun-19 01:30N 41°00' W 072°18'0 0.0
2015-Jun-19 00:33N 41°00' W 072°18'0 0.0
2015-Jun-18 23:33N 41°00' W 072°18'0 0.0
2015-Jun-18 22:33N 41°00' W 072°18'0 0.0
2015-Jun-18 21:33N 41°00' W 072°18'0 0.0
2015-Jun-18 20:33N 41°00' W 072°18'8 7.6
2015-Jun-18 19:33N 41°07' W 072°13'10 9.6
2015-Jun-18 18:33N 41°09' W 072°26'1211.9
2015-Jun-18 17:33N 41°09' W 072°42'1211.3
2015-Jun-18 16:28N 41°07' W 072°58'1010.8
2015-Jun-18 15:33N 41°04' W 073°10'1010.1
2015-Jun-18 14:33N 41°01' W 073°23'10 8.8
2015-Jun-18 13:23N 40°53' W 073°31'0 0.2
2015-Jun-18 12:32N 40°53' W 073°32'0 0.0
2015-Jun-18 11:32N 40°53' W 073°32'0 0.0
2015-Jun-18 10:26N 40°53' W 073°32'0 0.0
2015-Jun-18 09:22N 40°53' W 073°32'0 0.0
2015-Jun-18 08:31N 40°53' W 073°32'0 0.0
2015-Jun-18 07:31N 40°53' W 073°32'0 0.0
2015-Jun-18 06:31N 40°53' W 073°32'0 0.0
2015-Jun-18 05:22N 40°53' W 073°32'0 0.0
2015-Jun-18 04:31N 40°53' W 073°32'0 0.0
2015-Jun-18 02:13N 40°53' W 073°32'18 1.8
2015-Jun-17 16:05N 40°48' W 073°54'4 7.9
2015-Jun-17 15:33N 40°45' W 073°58'2 2.4
2015-Jun-17 14:33N 40°45' W 074°01'1 0.7
2015-Jun-17 13:31N 40°45' W 074°01'0 0.0
2015-Jun-17 12:31N 40°45' W 074°01'0 0.0
2015-Jun-17 11:31N 40°45' W 074°01'0 0.0
2015-Jun-17 10:31N 40°45' W 074°01'0 0.0
2015-Jun-17 09:32N 40°45' W 074°01'0 0.0
2015-Jun-17 08:32N 40°45' W 074°01'0 0.0
2015-Jun-17 07:32N 40°45' W 074°01'0 0.0
2015-Jun-17 06:32N 40°45' W 074°01'0 0.0
2015-Jun-17 05:32N 40°45' W 074°01'0 0.0
2015-Jun-17 04:32N 40°45' W 074°01'0 0.0
2015-Jun-17 03:32N 40°45' W 074°01'0 0.0
2015-Jun-17 02:32N 40°45' W 074°01'0 0.0
2015-Jun-17 01:32N 40°45' W 074°01'0 0.0
2015-Jun-17 00:32N 40°45' W 074°01'0 0.0
2015-Jun-16 23:32N 40°45' W 074°01'0 0.0
2015-Jun-16 22:32N 40°45' W 074°01'0 0.0
2015-Jun-16 21:32N 40°45' W 074°01'0 0.0
2015-Jun-16 20:32N 40°45' W 074°01'0 0.0
2015-Jun-16 19:32N 40°45' W 074°01'0 0.0
2015-Jun-16 18:32N 40°45' W 074°01'0 0.0
2015-Jun-16 17:32N 40°45' W 074°01'0 0.0
2015-Jun-16 16:32N 40°45' W 074°01'0 0.0
2015-Jun-16 15:32N 40°45' W 074°01'0 0.3
2015-Jun-16 14:33N 40°45' W 074°01'61 8.6
2015-Jun-16 07:29N 39°44' W 073°57'69 2.1
2015-Jun-14 22:17N 39°05' W 075°11'7 9.6
2015-Jun-14 21:33N 39°11' W 075°17'10 9.7
2015-Jun-14 20:33N 39°19' W 075°24'1212.4
2015-Jun-14 19:33N 39°29' W 075°34'7 6.7
2015-Jun-14 18:33N 39°33' W 075°41'8 7.9
2015-Jun-14 17:33N 39°32' W 075°51'  

Dump ship's entire track history